createdAt,value
2022-12-01T00:02:29.783Z,5.00
2022-12-01T00:04:57.838Z,5.11
2022-12-01T00:07:27.350Z,4.94
2022-12-01T00:10:12.761Z,4.96
2022-12-01T00:12:43.629Z,4.92
2022-12-01T00:15:12.337Z,4.94
2022-12-01T00:17:42.622Z,4.92
2022-12-01T00:20:11.700Z,4.76
2022-12-01T00:22:44.018Z,4.88
2022-12-01T00:25:12.417Z,4.91
2022-12-01T00:27:40.931Z,4.93
2022-12-01T00:30:11.350Z,4.88
2022-12-01T00:32:39.841Z,4.89
2022-12-01T00:35:08.132Z,4.87
2022-12-01T00:37:36.799Z,4.73
2022-12-01T00:40:07.906Z,4.88
2022-12-01T00:42:36.000Z,4.87
2022-12-01T00:45:04.146Z,4.88
2022-12-01T00:47:32.214Z,4.88
2022-12-01T00:50:00.213Z,4.89
2022-12-01T00:52:28.337Z,4.89
2022-12-01T00:54:56.384Z,4.88
2022-12-01T00:57:25.772Z,4.78
2022-12-01T00:59:53.783Z,4.88
2022-12-01T01:02:21.851Z,4.91
2022-12-01T01:04:49.932Z,4.91
2022-12-01T01:07:17.996Z,4.79
2022-12-01T01:09:46.244Z,4.89
2022-12-01T01:12:14.514Z,4.73
2022-12-01T01:14:44.742Z,4.91
2022-12-01T01:17:12.784Z,4.94
2022-12-01T01:19:40.778Z,4.96
2022-12-01T01:22:08.785Z,4.80
2022-12-01T01:24:36.907Z,4.93
2022-12-01T01:27:06.115Z,4.89
2022-12-01T01:29:34.178Z,4.81
2022-12-01T01:32:04.343Z,4.47
2022-12-01T01:34:32.472Z,4.82
2022-12-01T01:37:00.502Z,4.72
2022-12-01T01:39:28.599Z,4.80
2022-12-01T01:41:56.615Z,4.87
2022-12-01T01:44:48.811Z,4.87
2022-12-01T01:47:21.875Z,4.79
2022-12-01T01:49:50.718Z,4.75
2022-12-01T01:52:19.630Z,4.82
2022-12-01T01:54:50.960Z,4.70
2022-12-01T01:57:25.162Z,4.71
2022-12-01T01:59:56.643Z,4.37
2022-12-01T02:02:26.720Z,4.57
2022-12-01T02:05:01.820Z,4.49
2022-12-01T02:07:30.246Z,4.65
2022-12-01T02:09:58.877Z,4.61
2022-12-01T02:12:40.720Z,4.66
2022-12-01T02:15:19.945Z,4.65
2022-12-01T02:17:59.946Z,4.61
2022-12-01T02:21:06.306Z,4.62
2022-12-01T02:24:04.701Z,4.59
2022-12-01T02:26:43.840Z,4.50
2022-12-01T02:29:39.772Z,4.57
2022-12-01T02:32:17.847Z,4.56
2022-12-01T02:34:56.284Z,4.54
2022-12-01T02:37:29.562Z,4.46
2022-12-01T02:40:01.795Z,4.41
2022-12-01T02:42:53.678Z,4.49
2022-12-01T02:45:30.411Z,4.48
2022-12-01T02:48:03.337Z,4.49
2022-12-01T02:50:35.202Z,4.39
2022-12-01T02:53:05.318Z,4.32
2022-12-01T02:55:33.690Z,4.31
2022-12-01T02:58:01.722Z,4.19
2022-12-01T03:00:32.169Z,4.23
2022-12-01T03:03:32.424Z,4.30
2022-12-01T03:06:09.624Z,4.27
2022-12-01T03:08:46.260Z,4.19
2022-12-01T03:11:28.035Z,4.24
2022-12-01T03:14:10.130Z,4.22
2022-12-01T03:16:47.089Z,4.17
2022-12-01T03:19:21.233Z,4.16
2022-12-01T03:21:54.330Z,4.16
2022-12-01T03:24:26.089Z,4.15
2022-12-01T03:26:58.198Z,4.20
2022-12-01T03:29:30.764Z,4.15
2022-12-01T03:32:04.510Z,4.18
2022-12-01T03:34:40.553Z,4.23
2022-12-01T03:37:13.860Z,3.55
2022-12-01T03:39:44.929Z,4.12
2022-12-01T03:42:18.465Z,4.02
2022-12-01T03:44:50.293Z,4.06
2022-12-01T03:47:21.866Z,3.95
2022-12-01T03:49:53.750Z,3.96
2022-12-01T03:52:33.625Z,3.95
2022-12-01T03:55:12.033Z,3.88
2022-12-01T03:57:46.335Z,3.89
2022-12-01T04:00:17.041Z,4.00
2022-12-01T04:02:46.016Z,3.86
2022-12-01T04:05:15.537Z,3.75
2022-12-01T04:07:43.562Z,3.79
2022-12-01T04:10:12.105Z,3.79
2022-12-01T04:12:39.158Z,3.86
2022-12-01T04:15:10.237Z,3.91
2022-12-01T04:17:38.261Z,3.85
2022-12-01T04:20:08.536Z,3.86
2022-12-01T04:22:38.171Z,3.74
2022-12-01T04:25:07.784Z,3.67
2022-12-01T04:27:36.140Z,3.73
2022-12-01T04:30:05.287Z,3.74
2022-12-01T04:32:33.308Z,3.71
2022-12-01T04:35:01.299Z,3.71
2022-12-01T04:37:29.317Z,3.81
2022-12-01T04:39:58.698Z,3.74
2022-12-01T04:42:26.743Z,3.66
2022-12-01T04:44:54.709Z,3.61
2022-12-01T04:47:22.834Z,3.66
2022-12-01T04:49:51.292Z,3.37
2022-12-01T04:52:19.529Z,3.55
2022-12-01T04:54:47.547Z,3.58
2022-12-01T04:57:17.013Z,3.50
2022-12-01T04:59:45.003Z,3.42
2022-12-01T05:02:13.038Z,3.42
2022-12-01T05:04:41.927Z,3.32
2022-12-01T05:07:10.397Z,3.36
2022-12-01T05:09:38.914Z,3.12
2022-12-01T05:12:07.360Z,3.28
2022-12-01T05:14:36.834Z,3.30
2022-12-01T05:17:04.881Z,3.34
2022-12-01T05:19:50.438Z,3.34
2022-12-01T05:22:36.490Z,3.41
2022-12-01T05:25:06.878Z,3.30
2022-12-01T05:27:34.901Z,3.37
2022-12-01T05:30:04.756Z,3.40
2022-12-01T05:32:32.762Z,3.36
2022-12-01T05:35:00.805Z,3.44
2022-12-01T05:37:33.292Z,3.47
2022-12-01T05:40:01.485Z,3.55
2022-12-01T05:42:29.490Z,3.55
2022-12-01T05:44:57.496Z,3.61
2022-12-01T05:47:26.955Z,3.67
2022-12-01T05:49:54.993Z,3.74
2022-12-01T05:52:23.013Z,3.52
2022-12-01T05:54:51.048Z,3.47
2022-12-01T05:57:19.097Z,3.43
2022-12-01T05:59:47.539Z,3.43
2022-12-01T06:02:15.936Z,3.45
2022-12-01T06:04:45.399Z,3.62
2022-12-01T06:07:13.435Z,3.50
2022-12-01T06:09:41.870Z,3.58
2022-12-01T06:12:10.038Z,3.49
2022-12-01T06:14:38.024Z,3.54
2022-12-01T06:17:06.042Z,3.53
2022-12-01T06:19:33.996Z,3.45
2022-12-01T06:22:03.477Z,3.49
2022-12-01T06:24:31.577Z,3.47
2022-12-01T06:26:59.597Z,3.47
2022-12-01T06:29:27.614Z,3.45
2022-12-01T06:31:55.670Z,3.40
2022-12-01T06:34:23.807Z,3.43
2022-12-01T06:36:51.869Z,3.46
2022-12-01T06:39:21.314Z,3.45
2022-12-01T06:41:49.841Z,3.28
2022-12-01T06:44:17.849Z,2.65
2022-12-01T06:46:45.887Z,3.13
2022-12-01T06:49:14.473Z,3.08
2022-12-01T06:51:42.538Z,3.14
2022-12-01T06:54:12.777Z,3.14
2022-12-01T06:56:42.985Z,2.82
2022-12-01T06:59:11.443Z,3.22
2022-12-01T07:01:40.006Z,3.26
2022-12-01T07:04:08.126Z,3.14
2022-12-01T07:06:36.124Z,2.97
2022-12-01T07:09:04.472Z,2.97
2022-12-01T07:11:32.557Z,3.16
2022-12-01T07:14:01.964Z,3.05
2022-12-01T07:16:29.994Z,3.30
2022-12-01T07:19:00.006Z,3.19
2022-12-01T07:21:28.007Z,3.15
2022-12-01T07:23:56.082Z,3.21
2022-12-01T07:26:24.099Z,3.29
2022-12-01T07:28:52.114Z,3.09
2022-12-01T07:31:21.514Z,3.25
2022-12-01T07:33:49.559Z,3.26
2022-12-01T07:36:17.540Z,3.22
2022-12-01T07:38:45.741Z,3.21
2022-12-01T07:41:15.355Z,3.22
2022-12-01T07:43:43.750Z,3.24
2022-12-01T07:46:18.755Z,3.20
2022-12-01T07:48:48.961Z,3.02
2022-12-01T07:51:17.891Z,3.03
2022-12-01T07:53:46.926Z,3.03
2022-12-01T07:56:15.133Z,3.14
2022-12-01T07:58:43.908Z,3.28
2022-12-01T08:01:13.917Z,3.07
2022-12-01T08:03:42.527Z,3.01
2022-12-01T08:06:12.979Z,3.22
2022-12-01T08:08:42.418Z,3.27
2022-12-01T08:11:13.370Z,3.21
2022-12-01T08:13:42.130Z,3.07
2022-12-01T08:16:13.503Z,3.09
2022-12-01T08:18:42.927Z,3.06
2022-12-01T08:21:13.761Z,3.17
2022-12-01T08:23:42.793Z,3.01
2022-12-01T08:26:13.988Z,3.01
2022-12-01T08:28:42.636Z,3.27
2022-12-01T08:31:13.016Z,3.27
2022-12-01T08:33:41.115Z,3.35
2022-12-01T08:36:09.701Z,3.14
2022-12-01T08:38:39.128Z,3.25
2022-12-01T08:41:09.435Z,3.17
2022-12-01T08:46:28.953Z,3.15
2022-12-01T08:48:57.954Z,3.11
2022-12-01T08:51:27.126Z,3.00
2022-12-01T08:53:58.024Z,3.04
2022-12-01T08:56:28.011Z,2.82
2022-12-01T08:58:56.550Z,3.28
2022-12-01T09:01:25.741Z,3.15
2022-12-01T09:04:05.883Z,3.25
2022-12-01T09:06:36.193Z,3.30
2022-12-01T09:09:06.539Z,3.23
2022-12-01T09:11:34.554Z,3.22
2022-12-01T09:14:02.635Z,3.25
2022-12-01T09:16:30.740Z,3.02
2022-12-01T09:18:58.933Z,3.27
2022-12-01T09:21:30.435Z,3.24
2022-12-01T09:23:58.514Z,2.94
2022-12-01T09:26:28.964Z,3.29
2022-12-01T09:28:58.664Z,3.33
2022-12-01T09:31:26.819Z,3.33
2022-12-01T09:33:59.127Z,3.11
2022-12-01T09:36:27.727Z,3.42
2022-12-01T09:38:55.720Z,3.42
2022-12-01T09:41:29.419Z,3.41
2022-12-01T09:44:06.253Z,3.38
2022-12-01T09:46:41.414Z,3.32
2022-12-01T09:49:17.011Z,3.35
2022-12-01T09:51:45.277Z,3.41
2022-12-01T09:54:15.571Z,3.41
2022-12-01T09:56:47.518Z,3.35
2022-12-01T09:59:20.634Z,3.44
2022-12-01T10:01:53.276Z,3.49
2022-12-01T10:04:26.956Z,3.49
2022-12-01T10:07:00.323Z,3.50
2022-12-01T10:09:34.472Z,3.55
2022-12-01T10:12:15.171Z,3.59
2022-12-01T10:14:46.264Z,3.55
2022-12-01T10:17:23.929Z,3.71
2022-12-01T10:19:57.600Z,3.51
2022-12-01T10:22:46.544Z,3.58
2022-12-01T10:25:23.299Z,3.48
2022-12-01T10:28:05.839Z,3.51
2022-12-01T10:30:39.367Z,3.54
2022-12-01T10:33:18.524Z,3.58
2022-12-01T10:35:46.622Z,3.58
2022-12-01T10:38:23.889Z,3.65
2022-12-01T10:40:53.507Z,3.67
2022-12-01T10:43:30.438Z,3.75
2022-12-01T10:45:59.977Z,3.70
2022-12-01T10:48:28.109Z,3.80
2022-12-01T10:50:58.234Z,3.80
2022-12-01T10:53:31.430Z,3.82
2022-12-01T10:56:03.938Z,3.82
2022-12-01T10:58:35.362Z,3.90
2022-12-01T11:01:06.917Z,3.73
2022-12-01T11:03:37.491Z,3.78
2022-12-01T11:06:08.431Z,3.76
2022-12-01T11:08:44.879Z,3.79
2022-12-01T11:11:30.490Z,3.79
2022-12-01T11:14:02.881Z,3.43
2022-12-01T11:16:50.439Z,3.86
2022-12-01T11:19:27.360Z,3.93
2022-12-01T11:21:57.849Z,3.84
2022-12-01T11:24:56.895Z,3.95
2022-12-01T11:27:27.470Z,3.77
2022-12-01T11:29:59.754Z,3.74
2022-12-01T11:32:30.366Z,3.83
2022-12-01T11:35:00.862Z,3.54
2022-12-01T11:37:33.533Z,3.61
2022-12-01T11:40:15.124Z,3.74
2022-12-01T11:42:47.668Z,3.52
2022-12-01T11:45:29.206Z,3.55
2022-12-01T11:48:06.664Z,3.67
2022-12-01T11:50:36.915Z,3.63
2022-12-01T11:53:05.810Z,3.83
2022-12-01T11:55:33.874Z,3.74
2022-12-01T11:58:05.553Z,3.73
2022-12-01T12:00:47.017Z,3.70
2022-12-01T12:03:27.308Z,3.64
2022-12-01T12:06:38.931Z,3.59
2022-12-01T12:09:12.595Z,3.65
2022-12-01T12:11:48.995Z,3.54
2022-12-01T12:14:46.572Z,3.57
2022-12-01T12:17:29.525Z,3.62
2022-12-01T12:20:09.850Z,3.68
2022-12-01T12:22:54.969Z,3.62
2022-12-01T12:25:33.588Z,3.49
2022-12-01T12:28:20.825Z,3.69
2022-12-01T12:30:58.960Z,3.61
2022-12-01T12:33:54.263Z,3.60
2022-12-01T12:36:31.790Z,3.53
2022-12-01T12:39:16.387Z,3.55
2022-12-01T12:41:47.686Z,3.69
2022-12-01T12:44:42.658Z,3.65
2022-12-01T12:47:32.966Z,3.70
2022-12-01T12:50:16.409Z,3.81
2022-12-01T12:52:46.740Z,3.59
2022-12-01T12:55:20.057Z,3.75
2022-12-01T12:57:53.668Z,3.61
2022-12-01T13:00:24.957Z,3.71
2022-12-01T13:02:58.012Z,3.74
2022-12-01T13:05:36.286Z,3.69
2022-12-01T13:08:08.999Z,3.74
2022-12-01T13:10:44.156Z,3.66
2022-12-01T13:13:21.814Z,3.74
2022-12-01T13:15:51.828Z,3.64
2022-12-01T13:18:29.183Z,3.63
2022-12-01T13:20:59.596Z,3.58
2022-12-01T13:23:28.061Z,3.71
2022-12-01T13:25:59.271Z,3.62
2022-12-01T13:28:31.160Z,3.63
2022-12-01T13:31:04.650Z,3.52
2022-12-01T13:33:34.193Z,3.43
2022-12-01T13:39:01.554Z,3.54
2022-12-01T13:41:33.030Z,3.60
2022-12-01T13:44:04.870Z,3.49
2022-12-01T13:46:50.709Z,3.47
2022-12-01T13:49:36.906Z,3.53
2022-12-01T13:52:28.483Z,3.63
2022-12-01T13:55:26.332Z,3.72
2022-12-01T13:58:24.016Z,3.69
2022-12-01T14:00:52.376Z,3.48
2022-12-01T14:03:41.168Z,3.55
2022-12-01T14:06:22.204Z,3.47
2022-12-01T14:08:55.481Z,3.44
2022-12-01T14:11:25.709Z,3.35
2022-12-01T14:13:57.296Z,3.43
2022-12-01T14:16:26.399Z,3.00
2022-12-01T14:18:57.034Z,3.33
2022-12-01T14:21:47.376Z,3.35
2022-12-01T14:24:25.391Z,3.47
2022-12-01T14:26:53.916Z,3.43
2022-12-01T14:29:31.236Z,3.51
2022-12-01T14:32:23.834Z,3.47
2022-12-01T14:35:11.495Z,3.44
2022-12-01T14:37:48.307Z,3.41
2022-12-01T14:40:23.358Z,3.22
2022-12-01T14:43:13.902Z,3.31
2022-12-01T14:45:49.611Z,3.38
2022-12-01T14:48:21.361Z,3.38
2022-12-01T14:50:52.891Z,3.50
2022-12-01T14:53:26.338Z,3.42
2022-12-01T14:55:58.909Z,3.35
2022-12-01T14:58:29.569Z,3.26
2022-12-01T15:01:06.390Z,3.19
2022-12-01T15:03:38.607Z,3.30
2022-12-01T15:06:07.296Z,3.19
2022-12-01T15:08:45.874Z,3.32
2022-12-01T15:11:25.611Z,3.27
2022-12-01T15:13:55.286Z,3.22
2022-12-01T15:16:25.508Z,3.11
2022-12-01T15:18:54.257Z,3.21
2022-12-01T15:21:25.043Z,3.20
2022-12-01T15:23:58.976Z,3.19
2022-12-01T15:26:31.633Z,3.20
2022-12-01T15:29:14.568Z,3.02
2022-12-01T15:31:44.086Z,3.17
2022-12-01T15:34:17.133Z,3.08
2022-12-01T15:36:45.957Z,3.08
2022-12-01T15:39:18.009Z,3.20
2022-12-01T15:41:53.942Z,3.01
2022-12-01T15:44:27.474Z,3.00
2022-12-01T15:46:55.615Z,2.54
2022-12-01T15:49:29.487Z,3.15
2022-12-01T15:52:06.913Z,3.07
2022-12-01T15:54:35.366Z,3.02
2022-12-01T15:57:06.016Z,3.04
2022-12-01T15:59:39.110Z,2.88
2022-12-01T16:02:16.407Z,3.04
2022-12-01T16:04:44.939Z,3.04
2022-12-01T16:07:13.496Z,3.02
2022-12-01T16:09:42.996Z,3.06
2022-12-01T16:12:24.576Z,3.15
2022-12-01T16:15:04.139Z,3.07
2022-12-01T16:17:43.201Z,3.21
2022-12-01T16:20:24.439Z,3.11
2022-12-01T16:22:59.008Z,3.01
2022-12-01T16:25:35.055Z,3.05
2022-12-01T16:28:06.530Z,3.12
2022-12-01T16:30:37.884Z,3.15
2022-12-01T16:33:14.909Z,3.06
2022-12-01T16:35:42.933Z,3.02
2022-12-01T16:38:16.553Z,3.09
2022-12-01T16:40:44.937Z,3.18
2022-12-01T16:43:16.760Z,3.06
2022-12-01T16:45:45.266Z,3.07
2022-12-01T16:48:13.829Z,3.01
2022-12-01T16:50:41.838Z,3.01
2022-12-01T16:53:11.529Z,2.98
2022-12-01T16:55:43.305Z,3.20
2022-12-01T16:58:11.432Z,3.02
2022-12-01T17:00:41.173Z,2.99
2022-12-01T17:03:12.117Z,3.07
2022-12-01T17:05:40.266Z,3.01
2022-12-01T17:08:08.511Z,3.03
2022-12-01T17:10:36.578Z,2.91
2022-12-01T17:13:04.619Z,3.03
2022-12-01T17:15:32.652Z,3.06
2022-12-01T17:18:02.172Z,3.08
2022-12-01T17:20:30.125Z,3.05
2022-12-01T17:22:59.183Z,3.15
2022-12-01T17:25:27.252Z,3.06
2022-12-01T17:27:55.405Z,2.91
2022-12-01T17:30:23.391Z,3.04
2022-12-01T17:32:51.431Z,2.83
2022-12-01T17:35:21.267Z,2.94
2022-12-01T17:37:49.319Z,3.06
2022-12-01T17:40:17.449Z,2.87
2022-12-01T17:42:50.200Z,2.83
2022-12-01T17:45:19.100Z,2.89
2022-12-01T17:47:47.277Z,2.91
2022-12-01T17:50:15.323Z,2.73
2022-12-01T17:52:44.877Z,3.06
2022-12-01T17:55:12.890Z,2.90
2022-12-01T17:57:40.987Z,2.93
2022-12-01T18:00:10.308Z,2.93
2022-12-01T18:02:38.394Z,2.86
2022-12-01T18:05:07.442Z,2.87
2022-12-01T18:07:35.534Z,2.95
2022-12-01T18:10:05.435Z,2.99
2022-12-01T18:12:33.433Z,2.97
2022-12-01T18:15:01.636Z,2.74
2022-12-01T18:17:29.672Z,2.50
2022-12-01T18:19:57.645Z,2.83
2022-12-01T18:22:25.749Z,2.86
2022-12-01T18:24:53.798Z,2.80
2022-12-01T18:27:24.200Z,2.97
2022-12-01T18:29:52.254Z,2.84
2022-12-01T18:32:20.327Z,2.91
2022-12-01T18:34:48.669Z,2.89
2022-12-01T18:37:16.918Z,2.94
2022-12-01T18:39:45.143Z,2.84
2022-12-01T18:42:13.236Z,2.74
2022-12-01T18:44:43.240Z,2.79
2022-12-01T18:47:11.376Z,2.48
2022-12-01T18:49:39.420Z,2.88
2022-12-01T18:52:07.506Z,2.74
2022-12-01T18:54:35.883Z,2.91
2022-12-01T18:57:03.931Z,2.94
2022-12-01T18:59:31.958Z,2.83
2022-12-01T19:02:01.497Z,2.67
2022-12-01T19:04:29.568Z,2.83
2022-12-01T19:06:57.578Z,2.78
2022-12-01T19:09:25.615Z,2.71
2022-12-01T19:11:59.835Z,2.77
2022-12-01T19:14:29.218Z,2.81
2022-12-01T19:16:57.716Z,2.78
2022-12-01T19:19:27.524Z,2.85
2022-12-01T19:21:55.817Z,2.76
2022-12-01T19:24:23.966Z,2.57
2022-12-01T19:26:51.997Z,2.77
2022-12-01T19:29:20.153Z,2.79
2022-12-01T19:31:48.240Z,2.85
2022-12-01T19:34:16.330Z,2.86
2022-12-01T19:36:45.749Z,2.66
2022-12-01T19:39:13.828Z,2.79
2022-12-01T19:41:41.868Z,2.59
2022-12-01T19:44:11.412Z,2.74
2022-12-01T19:46:40.306Z,2.78
2022-12-01T19:49:09.195Z,2.56
2022-12-01T19:51:39.845Z,2.60
2022-12-01T19:54:14.045Z,2.57
2022-12-01T19:56:42.065Z,2.64
2022-12-01T19:59:11.680Z,2.53
2022-12-01T20:01:40.095Z,2.67
2022-12-01T20:04:08.670Z,2.70
2022-12-01T20:06:38.233Z,2.73
2022-12-01T20:09:08.370Z,2.65
2022-12-01T20:11:38.605Z,2.52
2022-12-01T20:14:08.196Z,2.55
2022-12-01T20:16:36.383Z,2.60
2022-12-01T20:19:05.842Z,2.66
2022-12-01T20:21:35.706Z,2.55
2022-12-01T20:24:05.697Z,2.66
2022-12-01T20:26:35.699Z,2.67
2022-12-01T20:29:07.526Z,2.57
2022-12-01T20:31:36.970Z,2.43
2022-12-01T20:34:10.774Z,2.62
2022-12-01T20:36:39.545Z,2.64
2022-12-01T20:39:09.080Z,2.66
2022-12-01T20:41:37.378Z,2.71
2022-12-01T20:44:07.832Z,2.56
2022-12-01T20:46:36.358Z,2.71
2022-12-01T20:49:05.909Z,2.54
2022-12-01T20:51:34.335Z,2.50
2022-12-01T20:56:50.714Z,2.55
2022-12-01T20:59:20.177Z,2.61
2022-12-01T21:01:48.286Z,2.63
2022-12-01T21:04:16.361Z,2.69
2022-12-01T21:06:44.492Z,2.63
2022-12-01T21:09:13.295Z,2.70
2022-12-01T21:12:03.769Z,2.65
2022-12-01T21:14:38.488Z,2.75
2022-12-01T21:17:17.305Z,2.71
2022-12-01T21:19:50.770Z,2.79
2022-12-01T21:22:20.256Z,2.63
2022-12-01T21:24:51.849Z,2.58
2022-12-01T21:27:20.138Z,2.56
2022-12-01T21:29:51.221Z,2.67
2022-12-01T21:32:22.803Z,2.54
2022-12-01T21:34:52.160Z,2.57
2022-12-01T21:37:23.185Z,2.46
2022-12-01T21:39:54.026Z,2.35
2022-12-01T21:42:26.164Z,2.40
2022-12-01T21:44:57.725Z,2.47
2022-12-01T21:47:28.553Z,2.46
2022-12-01T21:49:59.505Z,2.40
2022-12-01T21:52:33.934Z,2.49
2022-12-01T21:55:03.528Z,2.66
2022-12-01T21:57:42.856Z,2.65
2022-12-01T22:00:29.811Z,2.71
2022-12-01T22:03:23.140Z,2.70
2022-12-01T22:06:21.223Z,2.75
2022-12-01T22:08:44.036Z,2.51
2022-12-01T22:11:18.674Z,2.49
2022-12-01T22:13:48.592Z,2.55
2022-12-01T22:16:23.123Z,2.65
2022-12-01T22:18:53.064Z,2.77
2022-12-01T22:21:33.514Z,2.75
2022-12-01T22:24:16.717Z,2.64
2022-12-01T22:26:47.920Z,2.70
2022-12-01T22:29:29.332Z,2.50
2022-12-01T22:32:29.084Z,2.61
2022-12-01T22:35:01.493Z,2.73
2022-12-01T22:37:35.614Z,2.68
2022-12-01T22:40:23.677Z,2.70
2022-12-01T22:42:51.672Z,2.70
2022-12-01T22:45:24.705Z,2.58
2022-12-01T22:48:00.931Z,2.57
2022-12-01T22:50:31.115Z,2.70
2022-12-01T22:53:03.513Z,2.61
2022-12-01T22:55:31.493Z,2.69
2022-12-01T22:57:59.591Z,2.33
2022-12-01T23:00:27.790Z,2.65
2022-12-01T23:02:57.622Z,2.68
2022-12-01T23:05:27.548Z,2.75
2022-12-01T23:07:56.222Z,2.68
2022-12-01T23:10:26.486Z,2.59
2022-12-01T23:12:56.282Z,2.59
2022-12-01T23:15:30.488Z,2.60
2022-12-01T23:18:01.049Z,2.49
2022-12-01T23:20:34.258Z,2.51
2022-12-01T23:23:04.235Z,2.75
2022-12-01T23:25:32.861Z,2.64
2022-12-01T23:28:05.148Z,2.69
2022-12-01T23:30:33.450Z,2.64
2022-12-01T23:33:12.717Z,2.61
2022-12-01T23:35:47.788Z,2.59
2022-12-01T23:38:18.508Z,2.67
2022-12-01T23:40:46.883Z,2.63
2022-12-01T23:43:20.707Z,2.57
2022-12-01T23:45:49.727Z,2.61
2022-12-01T23:48:23.205Z,2.73
2022-12-01T23:50:54.016Z,2.72
2022-12-01T23:53:28.379Z,2.77
2022-12-01T23:55:57.870Z,2.68
2022-12-01T23:58:26.036Z,2.76
